createdAt,value
2018-12-19T00:02:26.413Z,64.84
2018-12-19T00:05:00.228Z,64.64
2018-12-19T00:07:34.207Z,70.52
2018-12-19T00:10:08.521Z,68.46
2018-12-19T00:12:42.449Z,67.29
2018-12-19T00:15:16.560Z,66.95
2018-12-19T00:17:50.468Z,66.59
2018-12-19T00:20:24.275Z,65.80
2018-12-19T00:22:58.155Z,65.15
2018-12-19T00:25:32.059Z,65.11
2018-12-19T00:28:06.207Z,64.97
2018-12-19T00:30:40.417Z,65.19
2018-12-19T00:33:14.423Z,65.35
2018-12-19T00:35:48.106Z,65.47
2018-12-19T00:38:21.906Z,65.27
2018-12-19T00:40:55.680Z,64.86
2018-12-19T00:43:29.642Z,64.70
2018-12-19T00:46:03.728Z,64.08
2018-12-19T00:48:37.764Z,64.75
2018-12-19T00:51:11.574Z,64.48
2018-12-19T00:53:45.682Z,64.56
2018-12-19T00:56:19.589Z,65.11
2018-12-19T00:58:53.352Z,66.67
2018-12-19T01:01:27.507Z,66.51
2018-12-19T01:04:01.121Z,66.70
2018-12-19T01:06:34.963Z,66.77
2018-12-19T01:09:08.922Z,66.22
2018-12-19T01:11:42.784Z,67.49
2018-12-19T01:14:16.817Z,66.59
2018-12-19T01:16:50.866Z,66.39
2018-12-19T01:19:24.959Z,66.05
2018-12-19T01:21:58.807Z,66.82
2018-12-19T01:24:32.772Z,66.49
2018-12-19T01:27:07.601Z,66.49
2018-12-19T01:29:41.340Z,66.46
2018-12-19T01:32:15.141Z,67.61
2018-12-19T01:34:48.896Z,67.12
2018-12-19T01:37:22.923Z,66.50
2018-12-19T01:39:56.690Z,67.86
2018-12-19T01:42:30.738Z,69.61
2018-12-19T01:45:06.741Z,68.74
2018-12-19T01:47:40.510Z,67.58
2018-12-19T01:50:14.609Z,67.01
2018-12-19T01:52:48.517Z,66.87
2018-12-19T01:55:22.315Z,67.83
2018-12-19T01:57:56.436Z,66.97
2018-12-19T02:00:32.080Z,67.10
2018-12-19T02:03:06.198Z,67.46
2018-12-19T02:05:40.100Z,67.76
2018-12-19T02:08:14.007Z,68.43
2018-12-19T02:10:47.813Z,67.74
2018-12-19T02:13:21.822Z,67.68
2018-12-19T02:15:55.626Z,67.18
2018-12-19T02:18:29.636Z,66.53
2018-12-19T02:21:03.457Z,65.97
2018-12-19T02:23:37.556Z,65.63
2018-12-19T02:26:11.184Z,66.60
2018-12-19T02:28:45.162Z,66.45
2018-12-19T02:31:18.967Z,66.49
2018-12-19T02:33:52.976Z,66.19
2018-12-19T02:36:26.988Z,64.62
2018-12-19T02:39:00.855Z,64.18
2018-12-19T02:41:35.009Z,63.85
2018-12-19T02:44:08.860Z,63.23
2018-12-19T02:46:43.001Z,63.57
2018-12-19T02:49:17.034Z,62.83
2018-12-19T02:51:51.044Z,62.73
2018-12-19T02:54:25.395Z,62.82
2018-12-19T02:56:59.168Z,62.82
2018-12-19T02:59:33.149Z,63.38
2018-12-19T03:02:07.202Z,63.95
2018-12-19T03:04:41.194Z,63.97
2018-12-19T03:07:15.204Z,64.44
2018-12-19T03:09:48.821Z,65.61
2018-12-19T03:12:22.917Z,64.92
2018-12-19T03:14:56.668Z,64.79
2018-12-19T03:17:30.729Z,65.04
2018-12-19T03:20:04.945Z,64.60
2018-12-19T03:22:38.954Z,65.80
2018-12-19T03:25:12.831Z,67.23
2018-12-19T03:27:46.972Z,66.06
2018-12-19T03:30:20.758Z,66.87
2018-12-19T03:32:54.993Z,67.87
2018-12-19T03:35:28.900Z,69.28
2018-12-19T03:38:02.911Z,69.89
2018-12-19T03:40:36.718Z,68.56
2018-12-19T03:43:10.564Z,67.93
2018-12-19T03:45:44.530Z,67.27
2018-12-19T03:48:23.966Z,68.53
2018-12-19T03:50:58.024Z,68.93
2018-12-19T03:53:32.062Z,68.91
2018-12-19T03:56:06.198Z,68.62
2018-12-19T03:58:40.105Z,68.08
2018-12-19T04:01:13.909Z,66.76
2018-12-19T04:03:47.715Z,65.49
2018-12-19T04:06:21.464Z,64.96
2018-12-19T04:08:55.529Z,64.47
2018-12-19T04:11:29.339Z,63.12
2018-12-19T04:14:03.145Z,63.97
2018-12-19T04:16:37.369Z,63.33
2018-12-19T04:19:11.261Z,62.88
2018-12-19T04:21:45.174Z,63.43
2018-12-19T04:24:18.919Z,62.86
2018-12-19T04:26:52.957Z,63.09
2018-12-19T04:29:27.094Z,62.94
2018-12-19T04:32:01.014Z,62.97
2018-12-19T04:34:35.013Z,62.93
2018-12-19T04:37:08.920Z,62.74
2018-12-19T04:39:42.627Z,62.86
2018-12-19T04:42:16.528Z,63.68
2018-12-19T04:44:50.439Z,65.02
2018-12-19T04:47:24.450Z,65.98
2018-12-19T04:49:58.555Z,65.52
2018-12-19T04:52:32.657Z,65.00
2018-12-19T04:55:06.780Z,64.34
2018-12-19T04:57:40.792Z,64.40
2018-12-19T05:00:14.777Z,64.56
2018-12-19T05:02:48.813Z,64.69
2018-12-19T05:05:22.820Z,64.61
2018-12-19T05:07:57.138Z,64.57
2018-12-19T05:10:31.046Z,64.45
2018-12-19T05:13:04.852Z,65.38
2018-12-19T05:15:38.762Z,64.79
2018-12-19T05:18:12.661Z,64.21
2018-12-19T05:20:46.468Z,64.39
2018-12-19T05:23:20.579Z,63.98
2018-12-19T05:25:54.383Z,63.97
2018-12-19T05:28:28.291Z,63.60
2018-12-19T05:31:02.914Z,64.06
2018-12-19T05:33:36.923Z,63.97
2018-12-19T05:36:10.934Z,64.17
2018-12-19T05:38:44.739Z,63.60
2018-12-19T05:41:18.851Z,63.81
2018-12-19T05:43:52.685Z,63.67
2018-12-19T05:46:26.666Z,63.39
2018-12-19T05:49:00.540Z,63.34
2018-12-19T05:51:34.527Z,63.06
2018-12-19T05:54:08.595Z,63.66
2018-12-19T05:56:42.397Z,63.88
2018-12-19T05:59:16.411Z,63.41
2018-12-19T06:01:50.417Z,63.38
2018-12-19T06:04:24.260Z,63.27
2018-12-19T06:06:58.017Z,63.12
2018-12-19T06:09:31.839Z,63.78
2018-12-19T06:12:05.530Z,64.85
2018-12-19T06:14:39.356Z,65.52
2018-12-19T06:17:13.348Z,64.91
2018-12-19T06:19:47.152Z,67.02
2018-12-19T06:22:21.274Z,65.15
2018-12-19T06:24:55.171Z,63.98
2018-12-19T06:27:28.976Z,63.33
2018-12-19T06:30:02.883Z,63.03
2018-12-19T06:32:37.301Z,62.75
2018-12-19T06:35:11.224Z,62.75
2018-12-19T06:37:45.017Z,62.54
2018-12-19T06:40:18.928Z,62.83
2018-12-19T06:42:54.316Z,63.06
2018-12-19T06:45:28.169Z,62.65
2018-12-19T06:48:02.386Z,62.77
2018-12-19T06:50:36.495Z,63.17
2018-12-19T06:53:10.403Z,62.82
2018-12-19T06:55:44.200Z,62.53
2018-12-19T06:58:18.218Z,62.61
2018-12-19T07:00:51.894Z,62.76
2018-12-19T07:03:25.928Z,62.75
2018-12-19T07:05:59.938Z,62.46
2018-12-19T07:08:33.948Z,63.04
2018-12-19T07:11:07.722Z,63.39
2018-12-19T07:13:41.864Z,64.04
2018-12-19T07:16:15.877Z,64.24
2018-12-19T07:18:49.678Z,64.08
2018-12-19T07:21:23.586Z,63.94
2018-12-19T07:23:57.698Z,64.13
2018-12-19T07:26:31.605Z,63.92
2018-12-19T07:29:05.320Z,63.23
2018-12-19T07:31:39.317Z,63.51
2018-12-19T07:34:13.227Z,64.04
2018-12-19T07:36:47.047Z,63.97
2018-12-19T07:39:21.039Z,64.80
2018-12-19T07:41:55.048Z,63.77
2018-12-19T07:44:29.060Z,64.32
2018-12-19T07:47:02.864Z,66.00
2018-12-19T07:49:36.684Z,65.18
2018-12-19T07:52:10.575Z,65.54
2018-12-19T07:54:44.485Z,66.09
2018-12-19T07:57:18.287Z,68.06
2018-12-19T07:59:52.053Z,67.37
2018-12-19T08:02:26.100Z,66.34
2018-12-19T08:05:00.008Z,65.95
2018-12-19T08:07:33.916Z,64.99
2018-12-19T08:10:07.926Z,64.55
2018-12-19T08:12:41.934Z,64.06
2018-12-19T08:15:15.844Z,63.94
2018-12-19T08:17:49.708Z,63.62
2018-12-19T08:20:23.655Z,63.47
2018-12-19T08:22:57.531Z,63.14
2018-12-19T08:25:31.470Z,63.38
2018-12-19T08:28:05.684Z,63.39
2018-12-19T08:30:39.594Z,63.23
2018-12-19T08:33:13.408Z,63.17
2018-12-19T08:35:47.611Z,64.21
2018-12-19T08:38:21.344Z,65.64
2018-12-19T08:40:58.718Z,66.26
2018-12-19T08:43:30.972Z,65.60
2018-12-19T08:46:04.674Z,65.15
2018-12-19T08:48:38.598Z,66.71
2018-12-19T08:51:12.455Z,67.41
2018-12-19T08:53:46.349Z,67.23
2018-12-19T08:56:20.259Z,67.28
2018-12-19T08:58:54.210Z,66.42
2018-12-19T09:01:28.221Z,66.62
2018-12-19T09:04:02.127Z,66.95
2018-12-19T09:06:36.034Z,66.98
2018-12-19T09:09:09.793Z,66.15
2018-12-19T09:11:43.645Z,65.58
2018-12-19T09:14:17.616Z,65.84
2018-12-19T09:16:51.687Z,67.47
2018-12-19T09:19:25.678Z,67.83
2018-12-19T09:21:59.785Z,68.42
2018-12-19T09:24:33.897Z,67.43
2018-12-19T09:27:07.802Z,68.38
2018-12-19T09:29:41.655Z,68.99
2018-12-19T09:32:15.719Z,67.65
2018-12-19T09:34:49.426Z,68.11
2018-12-19T09:37:23.369Z,66.74
2018-12-19T09:39:57.133Z,65.61
2018-12-19T09:42:30.805Z,65.14
2018-12-19T09:45:04.845Z,65.34
2018-12-19T09:47:38.878Z,64.75
2018-12-19T09:50:12.659Z,64.68
2018-12-19T09:52:46.469Z,66.34
2018-12-19T09:55:20.475Z,66.22
2018-12-19T09:57:54.381Z,65.86
2018-12-19T10:00:28.390Z,67.31
2018-12-19T10:03:02.351Z,67.88
2018-12-19T10:05:36.311Z,68.14
2018-12-19T10:08:10.219Z,66.58
2018-12-19T10:10:44.124Z,66.12
2018-12-19T10:13:17.927Z,65.24
2018-12-19T10:15:51.833Z,64.46
2018-12-19T10:18:25.843Z,64.38
2018-12-19T10:20:59.853Z,64.01
2018-12-19T10:23:33.863Z,64.42
2018-12-19T10:26:12.888Z,64.07
2018-12-19T10:28:46.796Z,64.05
2018-12-19T10:31:20.808Z,65.43
2018-12-19T10:33:54.817Z,66.47
2018-12-19T10:36:34.561Z,66.05
2018-12-19T10:39:12.931Z,65.41
2018-12-19T10:41:46.950Z,65.05
2018-12-19T10:44:20.941Z,65.62
2018-12-19T10:46:55.129Z,65.54
2018-12-19T10:49:29.071Z,65.26
2018-12-19T10:52:03.225Z,64.65
2018-12-19T10:54:37.101Z,66.13
2018-12-19T10:57:11.143Z,65.64
2018-12-19T10:59:45.264Z,67.02
2018-12-19T11:02:19.264Z,67.81
2018-12-19T11:04:54.335Z,69.96
2018-12-19T11:07:28.512Z,69.09
2018-12-19T11:10:02.160Z,69.48
2018-12-19T11:12:36.028Z,68.06
2018-12-19T11:15:10.298Z,68.61
2018-12-19T11:17:44.353Z,67.37
2018-12-19T11:20:19.382Z,66.76
2018-12-19T11:22:53.286Z,67.13
2018-12-19T11:25:27.079Z,66.70
2018-12-19T11:28:01.100Z,67.55
2018-12-19T11:30:35.008Z,68.45
2018-12-19T11:33:09.020Z,68.05
2018-12-19T11:35:42.827Z,68.85
2018-12-19T11:38:16.729Z,67.46
2018-12-19T11:40:50.500Z,67.78
2018-12-19T11:43:24.745Z,67.35
2018-12-19T11:45:58.662Z,66.54
2018-12-19T11:48:32.871Z,67.45
2018-12-19T11:51:06.680Z,67.98
2018-12-19T11:53:40.891Z,68.92
2018-12-19T11:56:14.586Z,68.59
2018-12-19T11:58:48.397Z,68.39
2018-12-19T12:01:22.108Z,68.70
2018-12-19T12:03:56.006Z,67.76
2018-12-19T12:06:29.874Z,67.61
2018-12-19T12:09:06.176Z,68.66
2018-12-19T12:11:45.601Z,69.48
2018-12-19T12:14:16.349Z,69.95
2018-12-19T12:16:50.561Z,69.73
2018-12-19T12:19:24.372Z,69.43
2018-12-19T12:21:58.581Z,68.37
2018-12-19T12:24:32.378Z,67.31
2018-12-19T12:27:06.394Z,66.87
2018-12-19T12:29:40.204Z,68.44
2018-12-19T12:32:14.400Z,67.66
2018-12-19T12:34:48.426Z,68.02
2018-12-19T12:37:22.433Z,67.15
2018-12-19T12:39:56.237Z,67.18
2018-12-19T12:42:30.042Z,66.93
2018-12-19T12:45:04.885Z,65.80
2018-12-19T12:47:38.883Z,66.09
2018-12-19T12:50:12.633Z,65.59
2018-12-19T12:52:46.695Z,66.02
2018-12-19T12:55:20.604Z,65.13
2018-12-19T12:57:54.579Z,66.01
2018-12-19T13:00:28.568Z,65.53
2018-12-19T13:03:02.631Z,65.95
2018-12-19T13:05:36.538Z,65.40
2018-12-19T13:08:10.287Z,65.36
2018-12-19T13:10:44.250Z,65.98
2018-12-19T13:13:17.959Z,65.18
2018-12-19T13:15:51.757Z,65.42
2018-12-19T13:18:25.665Z,65.47
2018-12-19T13:20:59.376Z,66.21
2018-12-19T13:23:33.378Z,68.05
2018-12-19T13:26:07.369Z,67.57
2018-12-19T13:28:41.400Z,68.00
2018-12-19T13:31:15.302Z,67.94
2018-12-19T13:33:49.210Z,67.73
2018-12-19T13:36:23.380Z,67.59
2018-12-19T13:38:57.320Z,67.77
2018-12-19T13:41:31.444Z,67.05
2018-12-19T13:44:05.225Z,66.08
2018-12-19T13:46:39.372Z,65.66
2018-12-19T13:49:13.226Z,65.14
2018-12-19T13:51:47.175Z,65.52
2018-12-19T13:54:20.981Z,64.67
2018-12-19T13:56:54.886Z,64.43
2018-12-19T13:59:28.866Z,64.14
2018-12-19T14:02:02.908Z,63.79
2018-12-19T14:04:36.997Z,63.64
2018-12-19T14:07:11.336Z,63.56
2018-12-19T14:09:45.402Z,63.22
2018-12-19T14:12:19.458Z,63.22
2018-12-19T14:14:53.173Z,63.26
2018-12-19T14:17:27.378Z,63.61
2018-12-19T14:20:01.178Z,63.45
2018-12-19T14:22:34.983Z,62.87
2018-12-19T14:25:08.844Z,62.95
2018-12-19T14:27:43.002Z,62.41
2018-12-19T14:30:16.755Z,62.35
2018-12-19T14:32:50.818Z,62.20
2018-12-19T14:35:24.724Z,62.31
2018-12-19T14:37:58.631Z,61.81
2018-12-19T14:40:32.436Z,61.63
2018-12-19T14:43:06.241Z,61.77
2018-12-19T14:45:40.049Z,61.89
2018-12-19T14:48:14.054Z,61.84
2018-12-19T14:50:47.707Z,62.38
2018-12-19T14:53:21.664Z,62.36
2018-12-19T14:55:55.673Z,61.95
2018-12-19T14:58:29.332Z,62.16
2018-12-19T15:01:03.294Z,63.58
2018-12-19T15:03:37.294Z,62.63
2018-12-19T15:06:11.200Z,62.25
2018-12-19T15:08:45.108Z,61.81
2018-12-19T15:11:18.924Z,62.09
2018-12-19T15:13:52.715Z,66.60
2018-12-19T15:16:27.648Z,65.81
2018-12-19T15:19:01.453Z,68.20
2018-12-19T15:21:35.668Z,68.33
2018-12-19T15:24:09.476Z,66.22
2018-12-19T15:26:43.659Z,64.87
2018-12-19T15:29:17.696Z,64.07
2018-12-19T15:31:51.507Z,63.47
2018-12-19T15:34:25.517Z,63.66
2018-12-19T15:36:59.528Z,65.01
2018-12-19T15:39:33.497Z,64.43
2018-12-19T15:42:07.644Z,63.85
2018-12-19T15:44:42.574Z,63.51
2018-12-19T15:47:16.380Z,63.51
2018-12-19T15:49:50.285Z,63.70
2018-12-19T15:52:24.195Z,64.04
2018-12-19T15:55:00.135Z,63.65
2018-12-19T15:57:34.054Z,63.50
2018-12-19T16:00:10.215Z,63.11
2018-12-19T16:02:44.225Z,63.19
2018-12-19T16:05:18.234Z,62.98
2018-12-19T16:07:52.039Z,64.17
2018-12-19T16:10:25.844Z,64.22
2018-12-19T16:12:59.750Z,64.48
2018-12-19T16:15:33.457Z,64.78
2018-12-19T16:18:07.637Z,64.63
2018-12-19T16:20:41.678Z,64.22
2018-12-19T16:23:15.688Z,63.79
2018-12-19T16:25:49.481Z,63.90
2018-12-19T16:28:23.604Z,63.58
2018-12-19T16:30:57.512Z,63.40
2018-12-19T16:33:31.623Z,63.12
2018-12-19T16:36:05.391Z,63.16
2018-12-19T16:38:39.437Z,63.44
2018-12-19T16:41:13.345Z,63.43
2018-12-19T16:43:47.165Z,63.64
2018-12-19T16:46:21.159Z,63.64
2018-12-19T16:48:55.169Z,63.70
2018-12-19T16:51:29.178Z,63.93
2018-12-19T16:54:04.109Z,63.91
2018-12-19T16:56:37.913Z,63.74
2018-12-19T16:59:11.923Z,63.70
2018-12-19T17:01:46.035Z,64.13
2018-12-19T17:04:20.664Z,63.75
2018-12-19T17:06:54.669Z,64.00
2018-12-19T17:09:28.579Z,63.83
2018-12-19T17:12:02.386Z,63.60
2018-12-19T17:14:36.290Z,63.82
2018-12-19T17:17:10.064Z,63.84
2018-12-19T17:19:44.210Z,63.84
2018-12-19T17:22:18.118Z,64.11
2018-12-19T17:24:52.124Z,65.28
2018-12-19T17:27:25.894Z,64.73
2018-12-19T17:30:00.056Z,64.06
2018-12-19T17:32:34.770Z,64.02
2018-12-19T17:35:08.839Z,63.82
2018-12-19T17:37:42.887Z,63.40
2018-12-19T17:40:16.898Z,63.48
2018-12-19T17:42:50.908Z,63.58
2018-12-19T17:45:24.920Z,63.23
2018-12-19T17:47:58.730Z,62.67
2018-12-19T17:50:33.244Z,62.40
2018-12-19T17:53:07.048Z,62.72
2018-12-19T17:55:41.057Z,62.66
2018-12-19T17:58:15.069Z,62.96
2018-12-19T18:00:48.834Z,62.86
2018-12-19T18:03:22.830Z,62.43
2018-12-19T18:05:56.892Z,63.96
2018-12-19T18:08:31.440Z,65.20
2018-12-19T18:11:05.525Z,65.33
2018-12-19T18:13:39.649Z,65.01
2018-12-19T18:16:13.544Z,66.65
2018-12-19T18:18:47.451Z,65.69
2018-12-19T18:21:21.359Z,65.19
2018-12-19T18:23:55.266Z,64.89
2018-12-19T18:26:30.024Z,64.36
2018-12-19T18:29:03.925Z,63.93
2018-12-19T18:31:37.807Z,63.75
2018-12-19T18:34:11.920Z,63.75
2018-12-19T18:36:45.976Z,64.16
2018-12-19T18:39:25.955Z,64.25
2018-12-19T18:41:56.202Z,64.05
2018-12-19T18:44:30.008Z,63.93
2018-12-19T18:47:03.914Z,64.17
2018-12-19T18:49:37.720Z,63.98
2018-12-19T18:52:11.530Z,64.03
2018-12-19T18:54:45.434Z,63.78
2018-12-19T18:57:19.752Z,63.80
2018-12-19T18:59:53.512Z,64.05
2018-12-19T19:02:27.365Z,66.51
2018-12-19T19:05:01.573Z,66.25
2018-12-19T19:07:35.490Z,65.60
2018-12-19T19:10:09.693Z,65.19
2018-12-19T19:12:43.503Z,64.63
2018-12-19T19:15:17.510Z,64.37
2018-12-19T19:17:51.213Z,64.15
2018-12-19T19:20:25.184Z,63.74
2018-12-19T19:22:59.232Z,63.65
2018-12-19T19:25:33.046Z,63.31
2018-12-19T19:28:07.146Z,63.51
2018-12-19T19:30:41.158Z,63.85
2018-12-19T19:33:15.064Z,63.29
2018-12-19T19:35:49.234Z,63.21
2018-12-19T19:38:23.064Z,62.61
2018-12-19T19:40:57.195Z,63.05
2018-12-19T19:43:30.841Z,62.79
2018-12-19T19:46:04.805Z,62.83
2018-12-19T19:48:38.577Z,62.78
2018-12-19T19:51:16.971Z,63.00
2018-12-19T19:53:48.472Z,62.87
2018-12-19T19:56:22.482Z,63.29
2018-12-19T19:58:56.360Z,63.46
2018-12-19T20:01:30.503Z,62.94
2018-12-19T20:04:04.513Z,61.70
2018-12-19T20:06:38.725Z,62.15
2018-12-19T20:09:12.736Z,62.16
2018-12-19T20:11:46.440Z,62.47
2018-12-19T20:14:20.145Z,62.73
2018-12-19T20:16:59.750Z,63.96
2018-12-19T20:19:33.791Z,63.70
2018-12-19T20:22:07.800Z,63.88
2018-12-19T20:24:41.811Z,64.18
2018-12-19T20:27:15.819Z,64.53
2018-12-19T20:29:49.828Z,65.32
2018-12-19T20:32:23.736Z,66.01
2018-12-19T20:34:57.470Z,66.12
2018-12-19T20:37:31.448Z,65.52
2018-12-19T20:40:06.073Z,64.67
2018-12-19T20:42:39.877Z,64.41
2018-12-19T20:45:13.681Z,63.88
2018-12-19T20:47:47.692Z,63.71
2018-12-19T20:50:21.702Z,63.84
2018-12-19T20:52:55.959Z,64.63
2018-12-19T20:55:30.036Z,64.40
2018-12-19T20:58:04.005Z,64.56
2018-12-19T21:00:38.251Z,64.42
2018-12-19T21:03:12.365Z,64.64
2018-12-19T21:05:46.276Z,64.63
2018-12-19T21:08:20.384Z,63.83
2018-12-19T21:10:54.397Z,64.24
2018-12-19T21:13:28.303Z,64.24
2018-12-19T21:16:02.089Z,63.50
2018-12-19T21:18:43.077Z,63.70
2018-12-19T21:21:17.166Z,63.57
2018-12-19T21:23:51.301Z,63.95
2018-12-19T21:26:25.106Z,64.87
2018-12-19T21:28:59.012Z,65.09
2018-12-19T21:31:32.818Z,64.99
2018-12-19T21:34:06.623Z,64.65
2018-12-19T21:36:40.530Z,65.29
2018-12-19T21:39:14.243Z,64.93
2018-12-19T21:41:48.142Z,65.04
2018-12-19T21:44:22.150Z,64.47
2018-12-19T21:46:56.056Z,64.23
2018-12-19T21:49:29.870Z,64.12
2018-12-19T21:52:03.876Z,64.25
2018-12-19T21:54:37.911Z,64.05
2018-12-19T21:57:11.849Z,64.23
2018-12-19T21:59:46.002Z,63.78
2018-12-19T22:02:19.808Z,63.82
2018-12-19T22:04:53.620Z,63.78
2018-12-19T22:07:27.531Z,63.77
2018-12-19T22:10:01.588Z,64.06
2018-12-19T22:12:35.514Z,63.69
2018-12-19T22:15:09.603Z,63.35
2018-12-19T22:17:47.522Z,63.60
2018-12-19T22:20:21.561Z,64.42
2018-12-19T22:22:55.548Z,65.17
2018-12-19T22:25:29.683Z,65.09
2018-12-19T22:28:03.552Z,65.91
2018-12-19T22:30:37.662Z,67.25
2018-12-19T22:33:11.716Z,66.91
2018-12-19T22:35:45.822Z,67.24
2018-12-19T22:38:19.891Z,68.20
2018-12-19T22:40:54.100Z,69.25
2018-12-19T22:43:29.188Z,69.31
2018-12-19T22:46:03.108Z,68.91
2018-12-19T22:48:37.215Z,70.60
2018-12-19T22:51:11.086Z,76.09
2018-12-19T22:53:45.225Z,78.20
2018-12-19T22:56:18.891Z,79.20
2018-12-19T22:58:52.878Z,78.24
2018-12-19T23:01:32.779Z,75.31
2018-12-19T23:04:07.193Z,73.30
2018-12-19T23:06:41.275Z,72.49
2018-12-19T23:09:15.319Z,71.44
2018-12-19T23:11:49.229Z,70.48
2018-12-19T23:14:23.236Z,69.94
2018-12-19T23:16:59.301Z,69.17
2018-12-19T23:19:33.304Z,68.81
2018-12-19T23:22:07.130Z,68.59
2018-12-19T23:24:41.119Z,68.38
2018-12-19T23:27:15.257Z,68.27
2018-12-19T23:29:49.343Z,67.98
2018-12-19T23:32:29.065Z,68.09
2018-12-19T23:35:02.889Z,67.71
2018-12-19T23:37:37.003Z,67.47
2018-12-19T23:40:10.948Z,69.26
2018-12-19T23:42:45.066Z,70.87
2018-12-19T23:45:19.543Z,71.00
2018-12-19T23:47:53.415Z,71.06
2018-12-19T23:50:27.368Z,70.98
2018-12-19T23:53:01.419Z,70.14
2018-12-19T23:55:35.533Z,70.00
2018-12-19T23:58:09.436Z,69.30
